createdAt,value
2023-03-06T00:00:48.567Z,51.10
2023-03-06T00:03:15.504Z,51.40
2023-03-06T00:05:42.514Z,51.60
2023-03-06T00:08:09.467Z,51.80
2023-03-06T00:10:36.654Z,51.90
2023-03-06T00:13:05.188Z,52.00
2023-03-06T00:15:32.145Z,52.00
2023-03-06T00:17:59.089Z,52.10
2023-03-06T00:20:26.746Z,52.20
2023-03-06T00:22:55.677Z,52.40
2023-03-06T00:25:22.875Z,52.60
2023-03-06T00:27:50.109Z,52.70
2023-03-06T00:30:21.757Z,52.70
2023-03-06T00:32:49.058Z,52.80
2023-03-06T00:35:15.902Z,52.90
2023-03-06T00:37:42.914Z,52.90
2023-03-06T00:40:11.265Z,53.00
2023-03-06T00:42:38.132Z,53.20
2023-03-06T00:45:05.280Z,53.30
2023-03-06T00:47:32.188Z,53.40
2023-03-06T00:49:59.172Z,53.80
2023-03-06T00:52:26.121Z,54.00
2023-03-06T00:54:55.643Z,54.20
2023-03-06T00:57:22.635Z,54.30
2023-03-06T00:59:49.623Z,54.30
2023-03-06T01:02:16.508Z,54.60
2023-03-06T01:04:43.440Z,54.70
2023-03-06T01:07:10.721Z,54.80
2023-03-06T01:09:37.590Z,54.80
2023-03-06T01:12:04.594Z,54.80
2023-03-06T01:14:32.163Z,54.80
2023-03-06T01:16:59.200Z,54.70
2023-03-06T01:19:26.148Z,54.80
2023-03-06T01:21:53.141Z,54.90
2023-03-06T01:24:20.038Z,54.90
2023-03-06T01:26:46.972Z,55.00
2023-03-06T01:29:13.874Z,55.10
2023-03-06T01:31:40.766Z,55.10
2023-03-06T01:34:07.647Z,55.20
2023-03-06T01:36:34.552Z,55.30
2023-03-06T01:39:01.504Z,55.40
2023-03-06T01:41:28.413Z,55.50
2023-03-06T01:43:55.341Z,55.60
2023-03-06T01:46:31.249Z,55.60
2023-03-06T01:49:07.460Z,55.70
2023-03-06T01:51:43.179Z,55.80
2023-03-06T01:54:14.930Z,55.70
2023-03-06T01:56:43.924Z,55.80
2023-03-06T01:59:11.071Z,55.80
2023-03-06T02:01:39.558Z,55.90
2023-03-06T02:04:06.643Z,56.10
2023-03-06T02:06:38.417Z,55.90
2023-03-06T02:09:05.974Z,56.10
2023-03-06T02:11:32.938Z,56.10
2023-03-06T02:13:59.919Z,56.30
2023-03-06T02:16:28.503Z,56.30
2023-03-06T02:18:55.533Z,56.30
2023-03-06T02:21:25.564Z,56.40
2023-03-06T02:23:52.446Z,56.60
2023-03-06T02:26:19.850Z,56.60
2023-03-06T02:28:46.758Z,56.50
2023-03-06T02:31:24.736Z,56.40
2023-03-06T02:34:21.020Z,56.50
2023-03-06T02:36:49.777Z,56.60
2023-03-06T02:39:20.091Z,56.50
2023-03-06T02:41:46.965Z,56.50
2023-03-06T02:44:13.956Z,56.70
2023-03-06T02:46:41.070Z,56.70
2023-03-06T02:49:08.190Z,56.70
2023-03-06T02:51:35.149Z,56.80
2023-03-06T02:54:02.097Z,56.80
2023-03-06T02:56:32.455Z,56.90
2023-03-06T02:58:59.300Z,57.00
2023-03-06T03:01:26.229Z,57.00
2023-03-06T03:03:53.150Z,57.00
2023-03-06T03:06:20.047Z,57.00
2023-03-06T03:08:47.101Z,57.10
2023-03-06T03:11:14.004Z,57.30
2023-03-06T03:13:40.980Z,57.50
2023-03-06T03:16:09.172Z,57.50
2023-03-06T03:18:36.564Z,57.50
2023-03-06T03:21:09.916Z,57.60
2023-03-06T03:23:36.824Z,57.70
2023-03-06T03:26:08.046Z,57.70
2023-03-06T03:28:35.026Z,57.80
2023-03-06T03:31:06.708Z,57.90
2023-03-06T03:33:34.098Z,57.90
2023-03-06T03:36:01.978Z,57.90
2023-03-06T03:38:29.499Z,58.00
2023-03-06T03:40:56.410Z,58.10
2023-03-06T03:43:23.364Z,58.20
2023-03-06T03:45:50.303Z,58.30
2023-03-06T03:48:17.174Z,58.40
2023-03-06T03:50:44.032Z,58.40
2023-03-06T03:53:11.108Z,58.60
2023-03-06T03:55:49.958Z,58.70
2023-03-06T03:58:16.875Z,58.70
2023-03-06T04:00:43.740Z,58.80
2023-03-06T04:03:10.987Z,58.90
2023-03-06T04:05:37.874Z,59.00
2023-03-06T04:08:05.698Z,58.90
2023-03-06T04:10:32.817Z,59.00
2023-03-06T04:13:00.026Z,59.00
2023-03-06T04:15:26.880Z,59.00
2023-03-06T04:17:53.770Z,59.10
2023-03-06T04:20:20.896Z,59.20
2023-03-06T04:22:47.861Z,59.30
2023-03-06T04:25:14.704Z,59.50
2023-03-06T04:27:41.621Z,59.60
2023-03-06T04:30:08.893Z,59.70
2023-03-06T04:32:35.837Z,59.70
2023-03-06T04:35:02.976Z,59.70
2023-03-06T04:37:29.961Z,59.80
2023-03-06T04:39:56.945Z,59.90
2023-03-06T04:42:23.818Z,60.00
2023-03-06T04:44:50.697Z,60.00
2023-03-06T04:47:19.136Z,60.10
2023-03-06T04:49:46.367Z,60.20
2023-03-06T04:52:13.195Z,60.30
2023-03-06T04:54:40.170Z,60.40
2023-03-06T04:57:08.558Z,60.40
2023-03-06T04:59:37.533Z,60.50
2023-03-06T05:02:06.025Z,60.50
2023-03-06T05:04:32.966Z,60.60
2023-03-06T05:06:59.946Z,60.90
2023-03-06T05:09:26.923Z,61.00
2023-03-06T05:11:53.893Z,61.00
2023-03-06T05:14:20.801Z,61.00
2023-03-06T05:16:47.928Z,61.00
2023-03-06T05:19:15.179Z,61.00
2023-03-06T05:21:42.128Z,60.90
2023-03-06T05:24:10.007Z,60.80
2023-03-06T05:26:37.077Z,60.40
2023-03-06T05:29:04.074Z,60.30
2023-03-06T05:31:31.010Z,60.30
2023-03-06T05:33:58.370Z,60.30
2023-03-06T05:36:25.382Z,60.60
2023-03-06T05:38:52.393Z,60.70
2023-03-06T05:41:19.354Z,60.80
2023-03-06T05:43:46.266Z,60.50
2023-03-06T05:46:13.222Z,60.50
2023-03-06T05:48:40.198Z,60.60
2023-03-06T05:51:07.146Z,60.70
2023-03-06T05:53:34.169Z,60.70
2023-03-06T05:56:05.518Z,60.80
2023-03-06T05:58:32.723Z,60.90
2023-03-06T06:00:59.823Z,61.20
2023-03-06T06:03:26.755Z,61.40
2023-03-06T06:05:53.764Z,61.20
2023-03-06T06:08:20.686Z,61.10
2023-03-06T06:10:47.733Z,61.10
2023-03-06T06:13:14.632Z,61.30
2023-03-06T06:15:41.551Z,61.70
2023-03-06T06:18:08.585Z,61.60
2023-03-06T06:20:36.993Z,61.40
2023-03-06T06:23:03.926Z,61.50
2023-03-06T06:25:31.006Z,61.40
2023-03-06T06:27:58.039Z,61.40
2023-03-06T06:30:25.365Z,61.60
2023-03-06T06:32:52.349Z,61.60
2023-03-06T06:35:19.304Z,61.50
2023-03-06T06:37:46.387Z,61.50
2023-03-06T06:40:13.475Z,61.50
2023-03-06T06:42:40.579Z,61.40
2023-03-06T06:45:08.558Z,61.20
2023-03-06T06:47:38.607Z,61.00
2023-03-06T06:50:06.038Z,60.90
2023-03-06T06:52:32.954Z,60.60
2023-03-06T06:54:59.851Z,60.50
2023-03-06T06:57:26.821Z,60.50
2023-03-06T06:59:54.255Z,60.80
2023-03-06T07:02:22.448Z,60.90
2023-03-06T07:05:02.929Z,60.90
2023-03-06T07:07:31.608Z,60.90
2023-03-06T07:09:58.470Z,60.90
2023-03-06T07:12:25.503Z,60.80
2023-03-06T07:14:52.345Z,60.70
2023-03-06T07:17:19.235Z,60.70
2023-03-06T07:19:46.131Z,60.60
2023-03-06T07:22:13.293Z,60.50
2023-03-06T07:24:40.303Z,60.30
2023-03-06T07:27:07.238Z,60.10
2023-03-06T07:29:34.715Z,60.10
2023-03-06T07:32:01.741Z,60.10
2023-03-06T07:34:28.713Z,59.90
2023-03-06T07:36:55.618Z,59.80
2023-03-06T07:39:22.438Z,59.70
2023-03-06T07:41:49.467Z,59.50
2023-03-06T07:44:16.352Z,59.50
2023-03-06T07:46:43.198Z,59.30
2023-03-06T07:49:10.168Z,59.30
2023-03-06T07:51:37.093Z,59.40
2023-03-06T07:54:04.030Z,59.40
2023-03-06T07:56:30.894Z,59.40
2023-03-06T07:58:57.774Z,59.40
2023-03-06T08:01:24.818Z,59.30
2023-03-06T08:03:52.233Z,59.30
2023-03-06T08:06:23.782Z,59.20
2023-03-06T08:08:51.796Z,59.00
2023-03-06T08:11:19.629Z,58.90
2023-03-06T08:13:48.681Z,58.80
2023-03-06T08:16:17.473Z,58.70
2023-03-06T08:18:46.318Z,58.60
2023-03-06T08:21:14.581Z,58.50
2023-03-06T08:23:41.957Z,58.40
2023-03-06T08:26:13.543Z,58.40
2023-03-06T08:28:40.645Z,58.40
2023-03-06T08:31:08.993Z,58.30
2023-03-06T08:33:36.446Z,58.20
2023-03-06T08:36:03.628Z,58.20
2023-03-06T08:38:30.514Z,57.70
2023-03-06T08:40:57.938Z,57.30
2023-03-06T08:43:24.945Z,56.90
2023-03-06T08:45:53.372Z,56.60
2023-03-06T08:48:20.368Z,56.60
2023-03-06T08:50:47.583Z,56.80
2023-03-06T08:53:14.794Z,56.90
2023-03-06T08:55:41.687Z,57.00
2023-03-06T08:58:08.884Z,57.00
2023-03-06T09:00:36.189Z,56.80
2023-03-06T09:03:03.365Z,56.80
2023-03-06T09:05:30.210Z,56.60
2023-03-06T09:07:57.158Z,56.60
2023-03-06T09:10:25.211Z,56.50
2023-03-06T09:12:54.810Z,56.10
2023-03-06T09:15:22.991Z,56.10
2023-03-06T09:17:50.973Z,56.00
2023-03-06T09:20:18.750Z,56.00
2023-03-06T09:22:48.681Z,55.60
2023-03-06T09:25:20.349Z,55.40
2023-03-06T09:27:55.486Z,55.20
2023-03-06T09:30:25.306Z,55.40
2023-03-06T09:32:52.193Z,55.80
2023-03-06T09:35:19.119Z,55.70
2023-03-06T09:37:46.448Z,55.40
2023-03-06T09:40:36.591Z,55.20
2023-03-06T09:43:03.496Z,55.00
2023-03-06T09:45:30.931Z,54.80
2023-03-06T09:47:57.750Z,54.80
2023-03-06T09:50:33.754Z,54.40
2023-03-06T09:53:16.439Z,53.90
2023-03-06T09:55:46.152Z,53.40
2023-03-06T09:58:13.061Z,53.30
2023-03-06T10:00:42.175Z,53.20
2023-03-06T10:03:35.208Z,52.90
2023-03-06T10:06:04.358Z,52.20
2023-03-06T10:08:44.803Z,51.70
2023-03-06T10:11:13.343Z,51.20
2023-03-06T10:13:43.413Z,50.80
2023-03-06T10:16:15.549Z,50.60
2023-03-06T10:18:42.598Z,50.50
2023-03-06T10:21:32.734Z,50.00
2023-03-06T10:24:18.280Z,49.60
2023-03-06T10:26:49.956Z,49.50
2023-03-06T10:29:19.953Z,49.40
2023-03-06T10:31:51.618Z,49.00
2023-03-06T10:34:23.072Z,49.00
2023-03-06T10:36:50.819Z,48.80
2023-03-06T10:39:20.133Z,48.70
2023-03-06T10:41:47.459Z,48.70
2023-03-06T10:44:14.280Z,48.30
2023-03-06T10:46:45.201Z,48.50
2023-03-06T10:49:15.255Z,48.70
2023-03-06T10:51:55.294Z,48.00
2023-03-06T10:54:22.340Z,47.10
2023-03-06T10:56:49.234Z,46.70
2023-03-06T10:59:27.439Z,46.70
2023-03-06T11:01:58.945Z,46.70
2023-03-06T11:04:29.054Z,46.40
2023-03-06T11:07:05.181Z,46.10
2023-03-06T11:09:33.443Z,46.00
2023-03-06T11:12:18.751Z,45.80
2023-03-06T11:14:45.637Z,45.40
2023-03-06T11:17:27.422Z,44.60
2023-03-06T11:20:13.232Z,44.30
2023-03-06T11:22:41.363Z,43.90
2023-03-06T11:28:00.403Z,43.50
2023-03-06T11:30:32.022Z,43.50
2023-03-06T11:33:00.654Z,43.40
2023-03-06T11:35:40.083Z,43.50
2023-03-06T11:38:30.963Z,43.60
2023-03-06T11:40:59.937Z,43.40
2023-03-06T11:43:35.483Z,43.50
2023-03-06T11:46:07.354Z,43.20
2023-03-06T11:48:42.524Z,43.20
2023-03-06T11:51:19.163Z,43.30
2023-03-06T11:53:47.023Z,43.20
2023-03-06T11:56:22.953Z,43.30
2023-03-06T11:58:49.846Z,43.30
2023-03-06T12:01:26.106Z,43.40
2023-03-06T12:04:02.856Z,43.60
2023-03-06T12:06:48.761Z,43.90
2023-03-06T12:09:27.684Z,43.80
2023-03-06T12:11:54.515Z,43.80
2023-03-06T12:14:27.746Z,44.00
2023-03-06T12:16:54.717Z,44.10
2023-03-06T12:19:28.518Z,44.30
2023-03-06T12:22:04.455Z,44.50
2023-03-06T12:24:49.698Z,44.50
2023-03-06T12:27:16.636Z,44.80
2023-03-06T12:29:46.753Z,44.90
2023-03-06T12:32:17.859Z,44.40
2023-03-06T12:34:47.868Z,44.40
2023-03-06T12:37:17.904Z,44.40
2023-03-06T12:39:47.771Z,44.30
2023-03-06T12:42:26.654Z,44.40
2023-03-06T12:44:56.514Z,44.60
2023-03-06T12:47:25.808Z,44.80
2023-03-06T12:49:57.396Z,45.00
2023-03-06T12:52:30.748Z,45.10
2023-03-06T12:54:59.749Z,45.00
2023-03-06T12:57:27.282Z,45.20
2023-03-06T12:59:54.916Z,45.30
2023-03-06T13:02:27.877Z,45.50
2023-03-06T13:04:57.821Z,45.60
2023-03-06T13:07:43.565Z,45.70
2023-03-06T13:10:15.446Z,45.80
2023-03-06T13:12:57.701Z,45.90
2023-03-06T13:15:43.584Z,46.00
2023-03-06T13:18:22.811Z,46.00
2023-03-06T13:20:53.311Z,45.90
2023-03-06T13:23:29.748Z,45.90
2023-03-06T13:25:57.840Z,46.00
2023-03-06T13:28:26.534Z,46.00
2023-03-06T13:30:56.217Z,46.10
2023-03-06T13:33:37.473Z,46.30
2023-03-06T13:36:39.973Z,46.30
2023-03-06T13:39:10.802Z,46.50
2023-03-06T13:41:53.168Z,46.50
2023-03-06T13:44:26.032Z,46.70
2023-03-06T13:47:01.598Z,46.80
2023-03-06T13:49:29.012Z,46.80
2023-03-06T13:51:55.847Z,47.80
2023-03-06T13:54:25.584Z,47.30
2023-03-06T13:56:52.516Z,47.30
2023-03-06T13:59:22.317Z,47.30
2023-03-06T14:01:51.993Z,47.30
2023-03-06T14:04:36.924Z,47.30
2023-03-06T14:07:23.451Z,47.30
2023-03-06T14:09:56.194Z,48.10
2023-03-06T14:12:25.060Z,51.10
2023-03-06T14:14:56.840Z,49.30
2023-03-06T14:17:26.828Z,48.50
2023-03-06T14:19:54.107Z,48.30
2023-03-06T14:22:23.143Z,48.10
2023-03-06T14:24:55.485Z,47.80
2023-03-06T14:27:37.312Z,47.80
2023-03-06T14:30:15.585Z,47.80
2023-03-06T14:32:42.667Z,47.90
2023-03-06T14:35:26.913Z,47.80
2023-03-06T14:37:55.826Z,47.80
2023-03-06T14:40:29.640Z,47.90
2023-03-06T14:43:17.908Z,47.80
2023-03-06T14:45:58.335Z,47.80
2023-03-06T14:48:26.946Z,47.90
2023-03-06T14:50:55.347Z,48.00
2023-03-06T14:53:24.170Z,48.00
2023-03-06T14:55:53.482Z,48.00
2023-03-06T14:58:22.077Z,48.00
2023-03-06T15:00:50.986Z,48.00
2023-03-06T15:03:26.121Z,48.10
2023-03-06T15:05:53.759Z,48.10
2023-03-06T15:08:24.111Z,48.10
2023-03-06T15:10:55.874Z,48.20
2023-03-06T15:13:24.047Z,48.20
2023-03-06T15:16:23.700Z,48.30
2023-03-06T15:18:57.860Z,48.40
2023-03-06T15:21:26.815Z,48.40
2023-03-06T15:23:55.070Z,48.50
2023-03-06T15:26:21.915Z,48.60
2023-03-06T15:29:08.296Z,48.70
2023-03-06T15:31:36.912Z,48.70
2023-03-06T15:34:06.911Z,49.00
2023-03-06T15:36:35.111Z,49.10
2023-03-06T15:39:02.290Z,49.10
2023-03-06T15:41:38.371Z,49.20
2023-03-06T15:44:13.026Z,49.30
2023-03-06T15:46:39.941Z,49.30
2023-03-06T15:49:13.702Z,49.30
2023-03-06T15:51:40.558Z,49.20
2023-03-06T15:54:12.373Z,49.10
2023-03-06T15:56:41.037Z,49.00
2023-03-06T15:59:11.535Z,48.90
2023-03-06T16:01:39.296Z,48.90
2023-03-06T16:04:06.219Z,48.90
2023-03-06T16:06:33.175Z,48.90
2023-03-06T16:09:00.021Z,48.80
2023-03-06T16:11:41.911Z,48.90
2023-03-06T16:14:16.133Z,49.00
2023-03-06T16:16:43.103Z,49.10
2023-03-06T16:19:25.402Z,49.10
2023-03-06T16:21:53.163Z,49.20
2023-03-06T16:24:20.050Z,49.30
2023-03-06T16:26:48.667Z,49.40
2023-03-06T16:29:18.544Z,49.50
2023-03-06T16:31:45.453Z,49.60
2023-03-06T16:34:12.387Z,49.70
2023-03-06T16:36:39.468Z,49.80
2023-03-06T16:39:06.581Z,49.90
2023-03-06T16:41:33.503Z,50.00
2023-03-06T16:44:00.479Z,50.20
2023-03-06T16:46:27.476Z,50.20
2023-03-06T16:48:54.528Z,50.30
2023-03-06T16:51:22.784Z,50.40
2023-03-06T16:53:53.052Z,50.50
2023-03-06T16:56:20.689Z,50.50
2023-03-06T16:58:47.731Z,50.60
2023-03-06T17:01:18.923Z,50.60
2023-03-06T17:03:46.037Z,50.70
2023-03-06T17:06:17.483Z,50.70
2023-03-06T17:08:44.875Z,50.90
2023-03-06T17:11:12.130Z,50.90
2023-03-06T17:13:39.113Z,50.90
2023-03-06T17:16:06.613Z,51.10
2023-03-06T17:18:33.648Z,51.10
2023-03-06T17:21:00.886Z,51.20
2023-03-06T17:23:29.253Z,51.20
2023-03-06T17:26:03.118Z,51.30
2023-03-06T17:28:30.119Z,51.30
2023-03-06T17:30:57.182Z,51.40
2023-03-06T17:33:24.059Z,51.40
2023-03-06T17:35:51.000Z,51.40
2023-03-06T17:38:17.841Z,51.50
2023-03-06T17:40:44.734Z,51.50
2023-03-06T17:43:11.596Z,51.60
2023-03-06T17:45:38.497Z,51.60
2023-03-06T17:48:05.456Z,51.70
2023-03-06T17:50:32.291Z,51.80
2023-03-06T17:52:59.226Z,51.80
2023-03-06T17:55:27.587Z,51.80
2023-03-06T17:57:54.477Z,51.80
2023-03-06T18:00:23.090Z,51.90
2023-03-06T18:02:49.935Z,52.00
2023-03-06T18:05:18.208Z,51.90
2023-03-06T18:07:45.127Z,51.90
2023-03-06T18:10:12.029Z,52.00
2023-03-06T18:12:38.906Z,52.00
2023-03-06T18:15:06.028Z,52.20
2023-03-06T18:17:33.228Z,52.20
2023-03-06T18:20:00.127Z,52.30
2023-03-06T18:22:27.082Z,52.40
2023-03-06T18:24:53.927Z,52.50
2023-03-06T18:27:21.940Z,52.60
2023-03-06T18:29:48.875Z,52.70
2023-03-06T18:32:15.835Z,52.70
2023-03-06T18:34:42.736Z,52.80
2023-03-06T18:37:09.604Z,52.80
2023-03-06T18:39:36.438Z,52.90
2023-03-06T18:42:05.661Z,52.90
2023-03-06T18:44:32.607Z,53.00
2023-03-06T18:46:59.434Z,53.10
2023-03-06T18:49:26.459Z,53.10
2023-03-06T18:51:53.959Z,53.20
2023-03-06T18:54:21.025Z,53.30
2023-03-06T18:57:01.640Z,53.30
2023-03-06T18:59:31.242Z,53.30
2023-03-06T19:01:58.917Z,53.40
2023-03-06T19:04:31.164Z,53.40
2023-03-06T19:06:58.564Z,53.40
2023-03-06T19:09:25.522Z,53.40
2023-03-06T19:11:54.734Z,53.50
2023-03-06T19:14:21.832Z,53.50
2023-03-06T19:16:48.790Z,53.50
2023-03-06T19:19:15.735Z,53.60
2023-03-06T19:21:42.636Z,53.60
2023-03-06T19:24:14.061Z,53.80
2023-03-06T19:26:42.055Z,53.80
2023-03-06T19:29:09.033Z,53.80
2023-03-06T19:31:35.905Z,53.80
2023-03-06T19:34:02.892Z,53.70
2023-03-06T19:36:33.645Z,53.60
2023-03-06T19:39:02.153Z,53.70
2023-03-06T19:41:29.418Z,53.80
2023-03-06T19:43:58.490Z,53.80
2023-03-06T19:46:25.986Z,53.80
2023-03-06T19:48:57.234Z,53.80
2023-03-06T19:51:24.596Z,53.80
2023-03-06T19:53:51.696Z,53.90
2023-03-06T19:56:22.933Z,54.00
2023-03-06T19:58:49.916Z,54.00
2023-03-06T20:01:18.190Z,54.00
2023-03-06T20:03:45.938Z,54.00
2023-03-06T20:06:14.173Z,54.00
2023-03-06T20:08:41.739Z,53.90
2023-03-06T20:11:32.665Z,54.10
2023-03-06T20:14:00.774Z,54.20
2023-03-06T20:16:29.140Z,54.20
2023-03-06T20:18:58.871Z,54.20
2023-03-06T20:21:26.580Z,54.20
2023-03-06T20:23:58.019Z,54.20
2023-03-06T20:26:26.086Z,54.20
2023-03-06T20:28:53.164Z,54.20
2023-03-06T20:31:21.242Z,54.20
2023-03-06T20:33:49.037Z,54.20
2023-03-06T20:36:23.476Z,54.30
2023-03-06T20:38:50.984Z,54.30
2023-03-06T20:41:19.173Z,54.30
2023-03-06T20:43:46.216Z,54.30
2023-03-06T20:46:23.694Z,54.20
2023-03-06T20:48:53.445Z,54.30
2023-03-06T20:51:33.953Z,54.30
2023-03-06T20:54:03.070Z,54.30
2023-03-06T20:56:37.071Z,54.30
2023-03-06T20:59:08.528Z,54.30
2023-03-06T21:01:45.688Z,54.30
2023-03-06T21:04:18.327Z,54.20
2023-03-06T21:06:47.104Z,54.20
2023-03-06T21:09:15.919Z,54.30
2023-03-06T21:11:42.923Z,54.30
2023-03-06T21:14:10.911Z,54.40
2023-03-06T21:16:37.802Z,54.40
2023-03-06T21:19:05.403Z,54.40
2023-03-06T21:21:33.830Z,54.40
2023-03-06T21:24:01.426Z,54.30
2023-03-06T21:26:29.661Z,54.40
2023-03-06T21:28:59.053Z,54.40
2023-03-06T21:31:27.197Z,54.30
2023-03-06T21:33:54.430Z,54.50
2023-03-06T21:36:21.907Z,54.60
2023-03-06T21:38:49.665Z,54.70
2023-03-06T21:41:18.301Z,54.70
2023-03-06T21:43:45.242Z,54.90
2023-03-06T21:46:12.550Z,54.90
2023-03-06T21:48:39.555Z,55.00
2023-03-06T21:51:11.515Z,54.90
2023-03-06T21:53:41.080Z,54.80
2023-03-06T21:56:08.702Z,54.80
2023-03-06T21:58:35.686Z,54.90
2023-03-06T22:01:03.148Z,55.00
2023-03-06T22:03:30.152Z,55.20
2023-03-06T22:05:57.058Z,55.30
2023-03-06T22:08:25.277Z,55.30
2023-03-06T22:10:52.187Z,55.60
2023-03-06T22:13:19.578Z,55.50
2023-03-06T22:15:50.668Z,55.60
2023-03-06T22:18:17.738Z,55.70
2023-03-06T22:20:44.840Z,55.80
2023-03-06T22:23:12.149Z,56.10
2023-03-06T22:25:39.045Z,56.10
2023-03-06T22:28:05.967Z,56.20
2023-03-06T22:30:32.896Z,56.30
2023-03-06T22:32:59.811Z,56.20
2023-03-06T22:35:26.669Z,56.10
2023-03-06T22:37:53.592Z,56.20
2023-03-06T22:40:20.580Z,56.20
2023-03-06T22:42:47.490Z,56.30
2023-03-06T22:45:14.489Z,56.20
2023-03-06T22:47:41.388Z,56.30
2023-03-06T22:50:08.819Z,56.20
2023-03-06T22:52:35.725Z,56.20
2023-03-06T22:55:02.638Z,56.10
2023-03-06T22:57:30.226Z,56.10
2023-03-06T22:59:57.270Z,56.00
2023-03-06T23:02:24.225Z,55.90
2023-03-06T23:04:54.462Z,55.80
2023-03-06T23:07:21.336Z,55.80
2023-03-06T23:09:48.255Z,55.60
2023-03-06T23:12:15.175Z,55.60
2023-03-06T23:14:42.200Z,55.50
2023-03-06T23:17:09.571Z,55.40
2023-03-06T23:19:36.492Z,55.40
2023-03-06T23:22:03.462Z,55.40
2023-03-06T23:24:30.364Z,55.30
2023-03-06T23:26:57.158Z,55.30
2023-03-06T23:29:24.044Z,55.30
2023-03-06T23:31:50.889Z,55.30
2023-03-06T23:34:17.820Z,55.40
2023-03-06T23:36:44.727Z,55.40
2023-03-06T23:39:12.380Z,55.40
2023-03-06T23:41:39.380Z,55.40
2023-03-06T23:44:06.260Z,55.50
2023-03-06T23:46:33.179Z,55.50
2023-03-06T23:49:00.276Z,55.50
2023-03-06T23:51:27.184Z,55.50
2023-03-06T23:53:55.688Z,55.50
2023-03-06T23:56:22.991Z,55.70
2023-03-06T23:58:49.914Z,55.60
